createdAt,value
2023-03-16T00:02:03.813Z,24.23
2023-03-16T00:04:31.600Z,26.57
2023-03-16T00:06:59.010Z,23.10
2023-03-16T00:09:31.103Z,22.03
2023-03-16T00:11:58.934Z,23.83
2023-03-16T00:14:26.658Z,27.43
2023-03-16T00:16:53.417Z,30.23
2023-03-16T00:19:22.914Z,21.00
2023-03-16T00:21:51.249Z,24.50
2023-03-16T00:24:19.619Z,26.53
2023-03-16T00:26:47.213Z,25.00
2023-03-16T00:29:14.328Z,26.80
2023-03-16T00:31:44.522Z,23.00
2023-03-16T00:34:12.788Z,31.23
2023-03-16T00:36:39.810Z,30.60
2023-03-16T00:39:07.327Z,22.63
2023-03-16T00:41:37.882Z,24.27
2023-03-16T00:44:06.553Z,20.77
2023-03-16T00:46:34.415Z,21.63
2023-03-16T00:49:02.914Z,25.60
2023-03-16T00:51:33.643Z,23.30
2023-03-16T00:54:00.777Z,25.73
2023-03-16T00:56:27.540Z,23.23
2023-03-16T00:58:57.872Z,27.70
2023-03-16T01:01:25.192Z,23.33
2023-03-16T01:03:52.245Z,24.30
2023-03-16T01:06:20.557Z,21.53
2023-03-16T01:08:48.344Z,27.13
2023-03-16T01:11:18.471Z,22.93
2023-03-16T01:13:49.235Z,26.90
2023-03-16T01:16:23.324Z,30.57
2023-03-16T01:18:52.497Z,24.90
2023-03-16T01:21:21.654Z,23.50
2023-03-16T01:23:50.400Z,25.97
2023-03-16T01:26:18.780Z,25.57
2023-03-16T01:28:47.652Z,27.33
2023-03-16T01:31:15.410Z,28.73
2023-03-16T01:33:43.740Z,24.43
2023-03-16T01:36:16.722Z,24.97
2023-03-16T01:38:54.145Z,21.93
2023-03-16T01:41:22.228Z,25.23
2023-03-16T01:43:51.806Z,27.23
2023-03-16T01:46:27.843Z,22.20
2023-03-16T01:49:12.305Z,25.67
2023-03-16T01:51:53.670Z,24.40
2023-03-16T01:54:39.134Z,22.67
2023-03-16T01:57:12.369Z,26.27
2023-03-16T02:00:15.064Z,25.40
2023-03-16T02:02:46.047Z,26.17
2023-03-16T02:05:33.297Z,24.00
2023-03-16T02:08:02.337Z,25.97
2023-03-16T02:10:31.052Z,22.50
2023-03-16T02:12:58.660Z,23.73
2023-03-16T02:15:27.393Z,22.40
2023-03-16T02:17:54.592Z,23.97
2023-03-16T02:20:40.719Z,23.57
2023-03-16T02:23:18.559Z,21.13
2023-03-16T02:26:00.199Z,23.17
2023-03-16T02:28:37.931Z,21.43
2023-03-16T02:31:06.793Z,20.63
2023-03-16T02:33:34.858Z,25.73
2023-03-16T02:36:01.985Z,28.70
2023-03-16T02:38:28.970Z,21.03
2023-03-16T02:41:01.474Z,25.87
2023-03-16T02:43:34.782Z,25.07
2023-03-16T02:46:13.942Z,23.37
2023-03-16T02:48:47.731Z,23.77
2023-03-16T02:51:14.823Z,22.73
2023-03-16T02:53:41.676Z,23.23
2023-03-16T02:56:08.834Z,21.90
2023-03-16T02:58:36.908Z,27.47
2023-03-16T03:01:09.297Z,25.87
2023-03-16T03:03:36.232Z,25.17
2023-03-16T03:06:05.313Z,20.20
2023-03-16T03:08:35.854Z,20.63
2023-03-16T03:11:03.189Z,29.20
2023-03-16T03:13:29.929Z,30.00
2023-03-16T03:15:57.188Z,19.90
2023-03-16T03:18:26.333Z,19.03
2023-03-16T03:20:53.726Z,20.03
2023-03-16T03:23:20.839Z,22.50
2023-03-16T03:25:48.030Z,19.60
2023-03-16T03:28:15.850Z,21.30
2023-03-16T03:30:43.395Z,27.67
2023-03-16T03:33:10.308Z,24.57
2023-03-16T03:35:37.484Z,24.37
2023-03-16T03:38:04.275Z,24.70
2023-03-16T03:40:31.473Z,27.43
2023-03-16T03:43:02.246Z,20.00
2023-03-16T03:45:31.073Z,22.70
2023-03-16T03:47:58.130Z,23.60
2023-03-16T03:50:26.035Z,33.90
2023-03-16T03:53:11.451Z,23.73
2023-03-16T03:55:58.522Z,21.67
2023-03-16T03:58:25.242Z,22.93
2023-03-16T04:00:52.504Z,22.20
2023-03-16T04:03:19.342Z,24.40
2023-03-16T04:05:46.514Z,27.90
2023-03-16T04:08:13.440Z,26.13
2023-03-16T04:10:41.071Z,25.07
2023-03-16T04:13:07.964Z,19.77
2023-03-16T04:15:38.382Z,26.67
2023-03-16T04:18:18.880Z,22.97
2023-03-16T04:20:45.901Z,25.93
2023-03-16T04:23:17.327Z,27.83
2023-03-16T04:25:46.766Z,28.00
2023-03-16T04:28:17.809Z,23.83
2023-03-16T04:30:47.094Z,21.43
2023-03-16T04:33:22.716Z,21.83
2023-03-16T04:35:50.100Z,20.47
2023-03-16T04:38:17.354Z,25.87
2023-03-16T04:40:53.668Z,21.47
2023-03-16T04:43:24.153Z,20.47
2023-03-16T04:45:55.994Z,25.27
2023-03-16T04:48:26.625Z,22.83
2023-03-16T04:50:53.686Z,19.63
2023-03-16T04:53:20.543Z,21.80
2023-03-16T04:55:54.007Z,23.50
2023-03-16T04:58:20.781Z,26.23
2023-03-16T05:00:52.990Z,21.50
2023-03-16T05:03:25.225Z,29.63
2023-03-16T05:05:52.394Z,28.37
2023-03-16T05:08:19.359Z,29.53
2023-03-16T05:10:49.759Z,25.77
2023-03-16T05:13:17.150Z,28.57
2023-03-16T05:15:47.028Z,23.80
2023-03-16T05:18:25.906Z,24.23
2023-03-16T05:20:56.042Z,26.40
2023-03-16T05:23:25.313Z,28.67
2023-03-16T05:25:59.814Z,23.93
2023-03-16T05:28:28.201Z,28.37
2023-03-16T05:31:03.553Z,21.77
2023-03-16T05:33:36.027Z,25.63
2023-03-16T05:36:07.725Z,29.40
2023-03-16T05:38:37.084Z,23.17
2023-03-16T05:41:06.210Z,26.83
2023-03-16T05:44:08.702Z,28.13
2023-03-16T05:47:05.023Z,15.67
2023-03-16T05:49:35.254Z,24.67
2023-03-16T05:52:06.363Z,18.50
2023-03-16T05:54:35.267Z,21.30
2023-03-16T05:57:02.445Z,19.57
2023-03-16T05:59:29.336Z,20.43
2023-03-16T06:01:58.496Z,23.07
2023-03-16T06:04:27.010Z,17.97
2023-03-16T06:06:54.176Z,16.30
2023-03-16T06:09:24.002Z,19.70
2023-03-16T06:11:51.578Z,19.70
2023-03-16T06:14:18.858Z,14.57
2023-03-16T06:16:46.420Z,19.47
2023-03-16T06:19:14.699Z,14.60
2023-03-16T06:21:42.431Z,20.47
2023-03-16T06:24:11.086Z,19.50
2023-03-16T06:26:38.224Z,13.20
2023-03-16T06:29:07.818Z,15.73
2023-03-16T06:31:38.482Z,14.07
2023-03-16T06:34:06.245Z,14.70
2023-03-16T06:36:34.064Z,16.27
2023-03-16T06:39:03.014Z,18.57
2023-03-16T06:41:42.787Z,12.57
2023-03-16T06:44:11.603Z,14.77
2023-03-16T06:46:45.301Z,12.07
2023-03-16T06:49:12.057Z,11.03
2023-03-16T06:51:39.161Z,13.37
2023-03-16T06:54:06.140Z,15.77
2023-03-16T06:56:37.327Z,15.53
2023-03-16T06:59:04.152Z,11.13
2023-03-16T07:01:31.794Z,12.93
2023-03-16T07:03:59.205Z,17.53
2023-03-16T07:06:36.043Z,13.07
2023-03-16T07:09:03.818Z,13.33
2023-03-16T07:11:32.690Z,14.17
2023-03-16T07:14:00.054Z,12.10
2023-03-16T07:16:29.389Z,12.07
2023-03-16T07:18:58.969Z,12.37
2023-03-16T07:21:26.119Z,17.30
2023-03-16T07:23:53.818Z,12.40
2023-03-16T07:26:25.140Z,13.40
2023-03-16T07:28:58.047Z,11.20
2023-03-16T07:31:25.884Z,13.17
2023-03-16T07:33:54.603Z,12.30
2023-03-16T07:36:31.468Z,11.30
2023-03-16T07:39:01.334Z,13.70
2023-03-16T07:41:28.436Z,15.67
2023-03-16T07:44:08.235Z,11.83
2023-03-16T07:46:35.382Z,14.20
2023-03-16T07:49:02.539Z,11.20
2023-03-16T07:51:29.710Z,13.53
2023-03-16T07:53:56.572Z,10.90
2023-03-16T07:56:39.127Z,9.50
2023-03-16T07:59:23.125Z,12.93
2023-03-16T08:01:50.666Z,11.63
2023-03-16T08:04:17.959Z,11.43
2023-03-16T08:06:46.031Z,18.20
2023-03-16T08:09:12.924Z,9.97
2023-03-16T08:11:41.586Z,16.43
2023-03-16T08:14:08.723Z,16.57
2023-03-16T08:16:55.081Z,12.77
2023-03-16T08:19:23.306Z,15.80
2023-03-16T08:22:01.074Z,12.67
2023-03-16T08:24:32.952Z,13.30
2023-03-16T08:27:01.254Z,9.50
2023-03-16T08:29:30.254Z,12.60
2023-03-16T08:31:57.624Z,15.70
2023-03-16T08:34:37.293Z,11.07
2023-03-16T08:37:04.981Z,20.70
2023-03-16T08:39:33.523Z,10.13
2023-03-16T08:42:03.622Z,25.37
2023-03-16T08:44:40.135Z,12.13
2023-03-16T08:47:07.404Z,15.77
2023-03-16T08:49:35.603Z,10.33
2023-03-16T08:52:11.055Z,8.93
2023-03-16T08:54:38.647Z,11.40
2023-03-16T08:57:05.673Z,9.80
2023-03-16T08:59:32.391Z,13.93
2023-03-16T09:02:00.487Z,12.33
2023-03-16T09:04:28.436Z,12.10
2023-03-16T09:07:08.706Z,9.00
2023-03-16T09:09:36.702Z,10.07
2023-03-16T09:12:04.369Z,13.13
2023-03-16T09:14:31.258Z,10.13
2023-03-16T09:16:58.458Z,14.40
2023-03-16T09:19:25.350Z,11.10
2023-03-16T09:21:53.719Z,13.30
2023-03-16T09:24:20.569Z,10.90
2023-03-16T09:26:47.777Z,9.70
2023-03-16T09:29:14.702Z,11.37
2023-03-16T09:31:41.685Z,11.47
2023-03-16T09:34:09.424Z,9.20
2023-03-16T09:36:36.508Z,9.03
2023-03-16T09:39:03.856Z,10.20
2023-03-16T09:41:53.971Z,11.40
2023-03-16T09:44:26.478Z,12.27
2023-03-16T09:46:56.806Z,9.83
2023-03-16T09:49:28.853Z,10.73
2023-03-16T09:52:06.262Z,10.93
2023-03-16T09:54:56.988Z,9.73
2023-03-16T09:57:29.603Z,12.07
2023-03-16T10:00:00.752Z,6.77
2023-03-16T10:03:06.529Z,8.00
2023-03-16T10:05:34.975Z,6.17
2023-03-16T10:08:24.878Z,8.27
2023-03-16T10:11:13.619Z,11.10
2023-03-16T10:14:02.868Z,7.57
2023-03-16T10:16:45.184Z,8.03
2023-03-16T10:19:42.118Z,9.27
2023-03-16T10:22:33.742Z,11.30
2023-03-16T10:25:13.306Z,10.50
2023-03-16T10:27:43.462Z,6.77
2023-03-16T10:30:28.921Z,11.60
2023-03-16T10:33:01.017Z,9.57
2023-03-16T10:35:56.849Z,8.53
2023-03-16T10:38:32.955Z,10.20
2023-03-16T10:41:00.762Z,8.97
2023-03-16T10:43:29.235Z,15.63
2023-03-16T10:46:02.423Z,13.70
2023-03-16T10:48:34.276Z,10.67
2023-03-16T10:51:07.826Z,11.63
2023-03-16T10:53:39.112Z,13.90
2023-03-16T10:56:20.324Z,12.70
2023-03-16T10:58:47.250Z,11.13
2023-03-16T11:01:18.804Z,11.97
2023-03-16T11:03:51.280Z,14.20
2023-03-16T11:06:25.758Z,13.33
2023-03-16T11:08:54.041Z,10.73
2023-03-16T11:11:31.109Z,14.63
2023-03-16T11:14:00.732Z,14.63
2023-03-16T11:16:37.635Z,15.33
2023-03-16T11:19:50.161Z,15.97
2023-03-16T11:22:21.027Z,12.37
2023-03-16T11:24:53.869Z,15.07
2023-03-16T11:27:25.081Z,17.07
2023-03-16T11:30:20.057Z,17.07
2023-03-16T11:32:53.308Z,20.73
2023-03-16T11:35:22.470Z,11.23
2023-03-16T11:38:11.017Z,12.57
2023-03-16T11:41:00.218Z,18.60
2023-03-16T11:44:10.704Z,19.67
2023-03-16T11:47:01.913Z,19.73
2023-03-16T11:49:44.784Z,8.60
2023-03-16T11:52:33.911Z,10.70
2023-03-16T11:55:25.500Z,10.83
2023-03-16T11:58:08.896Z,13.50
2023-03-16T12:00:56.446Z,11.93
2023-03-16T12:03:32.700Z,9.53
2023-03-16T12:06:22.220Z,15.90
2023-03-16T12:09:07.988Z,18.17
2023-03-16T12:11:55.010Z,16.83
2023-03-16T12:14:24.813Z,8.47
2023-03-16T12:17:03.134Z,9.97
2023-03-16T12:20:00.604Z,16.17
2023-03-16T12:22:38.173Z,9.03
2023-03-16T12:25:16.842Z,7.43
2023-03-16T12:27:46.291Z,7.47
2023-03-16T12:30:25.556Z,6.50
2023-03-16T12:33:15.095Z,7.20
2023-03-16T12:35:51.968Z,7.77
2023-03-16T12:38:45.610Z,5.67
2023-03-16T12:41:26.631Z,7.10
2023-03-16T12:44:17.872Z,7.23
2023-03-16T12:46:56.524Z,6.23
2023-03-16T12:49:26.431Z,7.03
2023-03-16T12:52:02.000Z,3.43
2023-03-16T12:54:29.338Z,5.93
2023-03-16T12:57:05.750Z,8.20
2023-03-16T12:59:42.775Z,7.60
2023-03-16T13:02:29.473Z,9.17
2023-03-16T13:05:03.082Z,8.90
2023-03-16T13:07:31.764Z,15.03
2023-03-16T13:10:10.017Z,10.07
2023-03-16T13:12:38.828Z,14.57
2023-03-16T13:15:26.641Z,13.60
2023-03-16T13:18:23.331Z,7.73
2023-03-16T13:20:57.170Z,5.93
2023-03-16T13:23:25.967Z,7.07
2023-03-16T13:26:15.048Z,11.37
2023-03-16T13:28:45.375Z,8.70
2023-03-16T13:31:37.692Z,8.50
2023-03-16T13:34:08.392Z,10.00
2023-03-16T13:36:37.074Z,7.77
2023-03-16T13:39:14.936Z,8.53
2023-03-16T13:41:43.503Z,14.10
2023-03-16T13:44:18.763Z,7.27
2023-03-16T13:46:48.967Z,10.37
2023-03-16T13:49:15.749Z,9.77
2023-03-16T13:51:43.818Z,11.37
2023-03-16T13:54:31.746Z,10.93
2023-03-16T13:57:03.650Z,14.37
2023-03-16T13:59:31.474Z,22.30
2023-03-16T14:02:01.894Z,29.47
2023-03-16T14:04:31.650Z,16.93
2023-03-16T14:07:01.890Z,12.07
2023-03-16T14:09:33.180Z,21.33
2023-03-16T14:12:00.658Z,12.90
2023-03-16T14:14:37.753Z,17.63
2023-03-16T14:17:13.896Z,17.47
2023-03-16T14:19:52.289Z,26.50
2023-03-16T14:22:23.919Z,28.07
2023-03-16T14:25:00.751Z,24.90
2023-03-16T14:27:40.667Z,23.23
2023-03-16T14:30:13.634Z,17.03
2023-03-16T14:32:41.640Z,10.00
2023-03-16T14:35:15.346Z,9.03
2023-03-16T14:37:42.997Z,7.10
2023-03-16T14:40:26.908Z,5.90
2023-03-16T14:42:57.583Z,7.90
2023-03-16T14:45:30.780Z,5.70
2023-03-16T14:48:17.009Z,6.80
2023-03-16T14:50:44.383Z,6.23
2023-03-16T14:53:11.775Z,16.13
2023-03-16T14:55:38.906Z,7.97
2023-03-16T14:58:05.950Z,8.33
2023-03-16T15:00:37.137Z,7.63
2023-03-16T15:03:17.122Z,9.83
2023-03-16T15:05:47.908Z,7.20
2023-03-16T15:08:24.119Z,7.07
2023-03-16T15:10:51.094Z,5.43
2023-03-16T15:13:35.114Z,5.37
2023-03-16T15:16:05.790Z,3.83
2023-03-16T15:18:33.593Z,2.33
2023-03-16T15:21:02.087Z,8.20
2023-03-16T15:23:30.835Z,4.50
2023-03-16T15:26:02.896Z,4.13
2023-03-16T15:28:30.312Z,5.63
2023-03-16T15:30:59.763Z,7.73
2023-03-16T15:33:27.518Z,7.00
2023-03-16T15:35:57.209Z,9.10
2023-03-16T15:38:34.597Z,6.27
2023-03-16T15:41:01.979Z,7.63
2023-03-16T15:43:32.029Z,8.77
2023-03-16T15:46:02.261Z,10.73
2023-03-16T15:48:29.476Z,7.60
2023-03-16T15:51:00.113Z,8.57
2023-03-16T15:53:43.741Z,10.03
2023-03-16T15:56:14.854Z,7.27
2023-03-16T15:58:45.804Z,7.50
2023-03-16T16:01:23.168Z,10.33
2023-03-16T16:03:51.819Z,6.00
2023-03-16T16:06:18.905Z,7.63
2023-03-16T16:08:46.340Z,7.00
2023-03-16T16:11:17.074Z,6.53
2023-03-16T16:13:45.297Z,6.23
2023-03-16T16:16:15.166Z,14.80
2023-03-16T16:18:42.744Z,11.60
2023-03-16T16:21:23.037Z,16.30
2023-03-16T16:23:52.224Z,25.77
2023-03-16T16:26:55.729Z,21.53
2023-03-16T16:29:26.714Z,20.37
2023-03-16T16:31:53.872Z,22.97
2023-03-16T16:34:24.670Z,20.30
2023-03-16T16:36:52.481Z,19.07
2023-03-16T16:39:19.966Z,22.80
2023-03-16T16:41:49.748Z,19.50
2023-03-16T16:44:29.493Z,20.70
2023-03-16T16:46:57.580Z,22.57
2023-03-16T16:49:28.218Z,23.17
2023-03-16T16:51:55.445Z,21.17
2023-03-16T16:54:24.572Z,37.50
2023-03-16T16:56:53.925Z,44.97
2023-03-16T16:59:24.810Z,22.70
2023-03-16T17:01:54.035Z,18.03
2023-03-16T17:04:25.297Z,24.97
2023-03-16T17:06:55.677Z,32.50
2023-03-16T17:09:24.288Z,22.10
2023-03-16T17:11:51.860Z,16.33
2023-03-16T17:14:21.279Z,16.47
2023-03-16T17:16:50.397Z,18.30
2023-03-16T17:19:24.422Z,20.93
2023-03-16T17:21:55.375Z,20.33
2023-03-16T17:24:23.099Z,20.63
2023-03-16T17:26:56.408Z,17.50
2023-03-16T17:29:32.162Z,15.47
2023-03-16T17:32:01.358Z,13.87
2023-03-16T17:34:30.203Z,14.87
2023-03-16T17:36:56.952Z,15.80
2023-03-16T17:39:34.534Z,17.80
2023-03-16T17:42:05.295Z,13.67
2023-03-16T17:44:41.079Z,14.60
2023-03-16T17:47:23.809Z,16.07
2023-03-16T17:49:51.479Z,15.90
2023-03-16T17:52:24.015Z,15.50
2023-03-16T17:54:52.782Z,18.90
2023-03-16T17:57:25.514Z,15.30
2023-03-16T17:59:53.059Z,15.40
2023-03-16T18:02:49.680Z,15.40
2023-03-16T18:05:24.397Z,14.47
2023-03-16T18:07:51.811Z,14.10
2023-03-16T18:10:23.106Z,13.87
2023-03-16T18:13:02.377Z,12.67
2023-03-16T18:15:32.761Z,26.13
2023-03-16T18:18:01.068Z,18.27
2023-03-16T18:20:32.824Z,12.80
2023-03-16T18:23:01.915Z,10.80
2023-03-16T18:25:33.081Z,35.53
2023-03-16T18:28:01.600Z,24.73
2023-03-16T18:30:30.039Z,22.63
2023-03-16T18:32:58.512Z,16.10
2023-03-16T18:35:26.135Z,29.53
2023-03-16T18:37:54.904Z,40.10
2023-03-16T18:40:23.701Z,38.53
2023-03-16T18:42:51.873Z,23.90
2023-03-16T18:45:19.435Z,19.43
2023-03-16T18:47:52.269Z,16.10
2023-03-16T18:50:28.693Z,17.37
2023-03-16T18:52:56.643Z,10.43
2023-03-16T18:55:25.591Z,10.30
2023-03-16T18:57:56.296Z,21.80
2023-03-16T19:00:27.069Z,23.23
2023-03-16T19:02:59.181Z,22.90
2023-03-16T19:05:33.745Z,30.57
2023-03-16T19:08:00.815Z,65.53
2023-03-16T19:10:32.285Z,160.93
2023-03-16T19:13:02.241Z,169.93
2023-03-16T19:15:35.643Z,171.67
2023-03-16T19:18:02.497Z,187.83
2023-03-16T19:20:33.042Z,201.60
2023-03-16T19:23:08.558Z,314.80
2023-03-16T19:25:41.431Z,275.13
2023-03-16T19:28:14.753Z,209.40
2023-03-16T19:30:42.297Z,190.37
2023-03-16T19:33:28.554Z,165.27
2023-03-16T19:35:56.907Z,159.63
2023-03-16T19:38:25.578Z,153.47
2023-03-16T19:40:56.881Z,128.83
2023-03-16T19:43:25.429Z,124.70
2023-03-16T19:45:52.755Z,121.97
2023-03-16T19:48:31.604Z,127.70
2023-03-16T19:50:59.177Z,119.07
2023-03-16T19:53:26.261Z,103.70
2023-03-16T19:55:53.843Z,76.63
2023-03-16T19:58:26.477Z,66.83
2023-03-16T20:00:53.872Z,64.77
2023-03-16T20:03:24.052Z,61.03
2023-03-16T20:05:52.654Z,61.03
2023-03-16T20:08:23.758Z,54.10
2023-03-16T20:10:51.405Z,26.90
2023-03-16T20:13:18.853Z,38.07
2023-03-16T20:15:47.462Z,35.00
2023-03-16T20:18:16.381Z,62.60
2023-03-16T20:20:43.999Z,31.40
2023-03-16T20:23:21.501Z,31.67
2023-03-16T20:25:49.497Z,24.53
2023-03-16T20:28:20.329Z,23.10
2023-03-16T20:30:48.713Z,26.27
2023-03-16T20:33:18.546Z,21.23
2023-03-16T20:35:46.320Z,16.57
2023-03-16T20:38:14.475Z,17.77
2023-03-16T20:40:44.140Z,23.73
2023-03-16T20:43:24.054Z,47.57
2023-03-16T20:45:53.492Z,134.83
2023-03-16T20:48:21.224Z,128.63
2023-03-16T20:50:48.339Z,90.27
2023-03-16T20:53:15.146Z,71.93
2023-03-16T20:55:43.224Z,48.20
2023-03-16T20:58:26.821Z,32.10
2023-03-16T21:00:58.456Z,43.90
2023-03-16T21:03:28.368Z,47.07
2023-03-16T21:05:59.695Z,36.33
2023-03-16T21:08:27.363Z,36.90
2023-03-16T21:10:56.740Z,30.70
2023-03-16T21:13:32.110Z,34.03
2023-03-16T21:16:01.912Z,33.60
2023-03-16T21:18:30.438Z,33.17
2023-03-16T21:20:58.807Z,35.83
2023-03-16T21:23:25.808Z,44.23
2023-03-16T21:25:56.743Z,43.07
2023-03-16T21:28:25.948Z,41.07
2023-03-16T21:30:54.644Z,41.43
2023-03-16T21:33:31.979Z,39.13
2023-03-16T21:36:00.292Z,47.73
2023-03-16T21:38:29.213Z,41.97
2023-03-16T21:40:56.922Z,72.87
2023-03-16T21:43:23.900Z,69.77
2023-03-16T21:45:51.983Z,74.23
2023-03-16T21:48:22.428Z,95.23
2023-03-16T21:50:51.110Z,153.27
2023-03-16T21:53:23.296Z,136.60
2023-03-16T21:55:52.064Z,178.63
2023-03-16T21:58:19.606Z,209.60
2023-03-16T22:00:47.462Z,155.90
2023-03-16T22:03:33.024Z,189.43
2023-03-16T22:06:05.512Z,161.07
2023-03-16T22:08:34.509Z,150.80
2023-03-16T22:11:02.265Z,102.83
2023-03-16T22:13:29.146Z,91.67
2023-03-16T22:15:58.421Z,103.97
2023-03-16T22:18:32.182Z,110.13
2023-03-16T22:21:02.177Z,85.93
2023-03-16T22:23:36.811Z,92.00
2023-03-16T22:26:08.295Z,96.97
2023-03-16T22:28:35.081Z,94.33
2023-03-16T22:31:04.146Z,88.50
2023-03-16T22:33:35.662Z,87.67
2023-03-16T22:36:11.806Z,57.37
2023-03-16T22:38:40.048Z,47.10
2023-03-16T22:41:07.778Z,32.83
2023-03-16T22:43:37.035Z,28.60
2023-03-16T22:46:04.348Z,16.20
2023-03-16T22:48:31.705Z,17.83
2023-03-16T22:51:03.935Z,19.03
2023-03-16T22:53:41.865Z,15.40
2023-03-16T22:56:11.635Z,22.63
2023-03-16T22:58:43.648Z,19.23
2023-03-16T23:01:42.503Z,14.50
2023-03-16T23:04:19.894Z,17.23
2023-03-16T23:06:48.791Z,20.37
2023-03-16T23:09:17.371Z,35.23
2023-03-16T23:11:46.373Z,71.57
2023-03-16T23:14:16.880Z,87.03
2023-03-16T23:16:44.889Z,83.03
2023-03-16T23:19:25.468Z,61.30
2023-03-16T23:21:54.716Z,62.57
2023-03-16T23:24:22.403Z,54.07
2023-03-16T23:26:50.960Z,42.83
2023-03-16T23:29:17.865Z,33.60
2023-03-16T23:31:45.213Z,25.90
2023-03-16T23:34:13.960Z,33.53
2023-03-16T23:36:41.177Z,32.87
2023-03-16T23:39:08.879Z,33.47
2023-03-16T23:41:37.754Z,39.27
2023-03-16T23:44:06.656Z,54.13
2023-03-16T23:46:35.248Z,62.40
2023-03-16T23:49:05.109Z,74.27
2023-03-16T23:51:36.703Z,67.00
2023-03-16T23:54:25.441Z,106.83
2023-03-16T23:56:52.553Z,105.33
2023-03-16T23:59:20.905Z,125.03
